createdAt,value
2017-06-25T00:01:57.430Z,19.80
2017-06-25T00:04:25.770Z,19.70
2017-06-25T00:06:54.090Z,19.70
2017-06-25T00:09:22.466Z,19.70
2017-06-25T00:11:50.757Z,19.70
2017-06-25T00:14:19.050Z,19.70
2017-06-25T00:16:47.382Z,19.70
2017-06-25T00:19:15.690Z,19.70
2017-06-25T00:21:44.095Z,19.70
2017-06-25T00:24:12.424Z,19.60
2017-06-25T00:26:40.712Z,19.60
2017-06-25T00:29:09.024Z,19.50
2017-06-25T00:31:37.998Z,19.50
2017-06-25T00:34:06.290Z,19.40
2017-06-25T00:36:34.582Z,19.40
2017-06-25T00:39:02.933Z,19.30
2017-06-25T00:41:31.299Z,19.30
2017-06-25T00:43:59.590Z,19.20
2017-06-25T00:46:27.887Z,19.20
2017-06-25T00:48:56.218Z,19.20
2017-06-25T00:51:25.586Z,19.10
2017-06-25T00:54:09.603Z,19.10
2017-06-25T00:56:37.894Z,19.20
2017-06-25T00:59:06.185Z,19.20
2017-06-25T01:01:34.525Z,19.20
2017-06-25T01:04:02.818Z,19.10
2017-06-25T01:06:31.879Z,19.20
2017-06-25T01:09:00.213Z,19.20
2017-06-25T01:11:28.505Z,19.20
2017-06-25T01:13:56.802Z,19.10
2017-06-25T01:16:25.127Z,19.10
2017-06-25T01:18:54.186Z,19.10
2017-06-25T01:21:22.509Z,19.10
2017-06-25T01:23:50.798Z,19.10
2017-06-25T01:26:19.884Z,19.00
2017-06-25T01:28:48.180Z,19.00
2017-06-25T01:31:17.265Z,19.00
2017-06-25T01:33:46.325Z,19.00
2017-06-25T01:36:14.670Z,18.90
2017-06-25T01:38:42.966Z,19.00
2017-06-25T01:41:11.264Z,18.90
2017-06-25T01:43:39.613Z,18.90
2017-06-25T01:46:07.948Z,18.90
2017-06-25T01:48:37.147Z,18.70
2017-06-25T01:51:06.214Z,18.70
2017-06-25T01:53:34.543Z,18.70
2017-06-25T01:56:02.839Z,18.70
2017-06-25T01:58:31.169Z,18.70
2017-06-25T02:00:59.461Z,18.60
2017-06-25T02:03:28.521Z,18.60
2017-06-25T02:05:56.840Z,18.60
2017-06-25T02:08:25.909Z,18.60
2017-06-25T02:10:54.239Z,18.60
2017-06-25T02:13:22.541Z,18.60
2017-06-25T02:15:50.926Z,18.60
2017-06-25T02:18:19.258Z,18.60
2017-06-25T02:20:47.581Z,18.60
2017-06-25T02:23:15.914Z,18.50
2017-06-25T02:25:44.208Z,18.50
2017-06-25T02:28:12.633Z,18.50
2017-06-25T02:30:40.938Z,18.50
2017-06-25T02:33:09.282Z,18.50
2017-06-25T02:35:37.581Z,18.50
2017-06-25T02:38:06.665Z,18.50
2017-06-25T02:40:34.986Z,18.50
2017-06-25T02:43:03.282Z,18.50
2017-06-25T02:45:31.609Z,18.50
2017-06-25T02:48:00.665Z,18.40
2017-06-25T02:50:29.759Z,18.40
2017-06-25T02:52:58.074Z,18.40
2017-06-25T02:55:26.449Z,18.40
2017-06-25T02:57:55.537Z,18.30
2017-06-25T03:00:23.908Z,18.30
2017-06-25T03:02:52.233Z,18.20
2017-06-25T03:05:20.537Z,18.30
2017-06-25T03:07:48.864Z,18.30
2017-06-25T03:10:17.918Z,18.10
2017-06-25T03:12:46.210Z,18.10
2017-06-25T03:15:14.541Z,18.00
2017-06-25T03:17:42.837Z,18.00
2017-06-25T03:20:11.130Z,18.00
2017-06-25T03:22:39.449Z,18.00
2017-06-25T03:25:08.513Z,18.10
2017-06-25T03:27:36.847Z,18.10
2017-06-25T03:30:05.133Z,18.20
2017-06-25T03:32:33.425Z,18.20
2017-06-25T03:35:01.748Z,18.20
2017-06-25T03:37:30.805Z,18.20
2017-06-25T03:39:59.122Z,18.20
2017-06-25T03:42:28.289Z,18.10
2017-06-25T03:44:56.807Z,18.10
2017-06-25T03:47:25.169Z,18.00
2017-06-25T03:49:53.508Z,18.00
2017-06-25T03:52:21.802Z,18.00
2017-06-25T03:54:50.097Z,18.00
2017-06-25T03:57:18.416Z,18.00
2017-06-25T03:59:47.477Z,18.10
2017-06-25T04:02:15.786Z,18.10
2017-06-25T04:04:44.841Z,18.10
2017-06-25T04:07:13.213Z,18.10
2017-06-25T04:09:41.506Z,18.20
2017-06-25T04:12:09.794Z,18.20
2017-06-25T04:14:38.109Z,18.20
2017-06-25T04:17:06.405Z,18.20
2017-06-25T04:19:34.725Z,18.20
2017-06-25T04:22:03.017Z,18.30
2017-06-25T04:24:31.333Z,18.30
2017-06-25T04:26:59.658Z,18.40
2017-06-25T04:29:27.989Z,18.40
2017-06-25T04:31:56.289Z,18.60
2017-06-25T04:34:24.578Z,18.70
2017-06-25T04:36:52.896Z,18.80
2017-06-25T04:39:21.946Z,19.10
2017-06-25T04:41:50.266Z,19.10
2017-06-25T04:44:19.316Z,19.30
2017-06-25T04:46:47.640Z,19.20
2017-06-25T04:49:16.551Z,19.40
2017-06-25T04:51:44.877Z,19.50
2017-06-25T04:54:13.194Z,19.50
2017-06-25T04:56:42.250Z,19.70
2017-06-25T04:59:10.574Z,19.70
2017-06-25T05:01:38.864Z,19.80
2017-06-25T05:04:07.178Z,19.90
2017-06-25T05:06:35.472Z,19.90
2017-06-25T05:09:03.794Z,20.10
2017-06-25T05:11:32.085Z,20.10
2017-06-25T05:14:00.384Z,20.30
2017-06-25T05:16:28.710Z,20.40
2017-06-25T05:18:57.008Z,20.50
2017-06-25T05:21:25.300Z,20.70
2017-06-25T05:23:53.616Z,20.90
2017-06-25T05:26:21.906Z,21.00
2017-06-25T05:28:50.985Z,21.50
2017-06-25T05:31:19.344Z,21.40
2017-06-25T05:33:47.660Z,21.70
2017-06-25T05:36:16.719Z,22.80
2017-06-25T05:38:45.036Z,22.80
2017-06-25T05:41:13.325Z,22.90
2017-06-25T05:43:41.650Z,22.50
2017-06-25T05:46:09.952Z,22.30
2017-06-25T05:48:38.273Z,22.10
2017-06-25T05:51:06.576Z,21.90
2017-06-25T05:53:34.892Z,21.80
2017-06-25T05:56:03.950Z,22.80
2017-06-25T05:58:32.304Z,22.80
2017-06-25T06:01:00.870Z,23.90
2017-06-25T06:03:29.927Z,26.20
2017-06-25T06:05:58.271Z,26.20
2017-06-25T06:08:26.579Z,27.20
2017-06-25T06:10:54.882Z,28.30
2017-06-25T06:13:23.958Z,29.50
2017-06-25T06:15:52.245Z,29.40
2017-06-25T06:18:21.352Z,31.20
2017-06-25T06:20:49.657Z,31.10
2017-06-25T06:23:17.973Z,31.80
2017-06-25T06:25:46.268Z,32.10
2017-06-25T06:28:15.377Z,32.70
2017-06-25T06:30:44.439Z,33.40
2017-06-25T06:33:12.738Z,33.30
2017-06-25T06:35:41.837Z,33.50
2017-06-25T06:38:10.140Z,33.40
2017-06-25T06:40:38.485Z,33.60
2017-06-25T06:43:07.554Z,33.30
2017-06-25T06:45:35.885Z,33.20
2017-06-25T06:48:04.177Z,33.10
2017-06-25T06:50:32.461Z,33.40
2017-06-25T06:53:01.060Z,34.00
2017-06-25T06:55:29.356Z,33.70
2017-06-25T06:57:57.677Z,32.80
2017-06-25T07:00:25.967Z,31.40
2017-06-25T07:02:54.296Z,29.90
2017-06-25T07:05:22.649Z,28.40
2017-06-25T07:07:51.725Z,26.20
2017-06-25T07:10:20.045Z,26.20
2017-06-25T07:12:48.365Z,25.50
2017-06-25T07:15:16.666Z,24.70
2017-06-25T07:17:44.988Z,24.10
2017-06-25T07:20:13.330Z,23.70
2017-06-25T07:22:41.626Z,23.50
2017-06-25T07:25:09.992Z,23.50
2017-06-25T07:27:38.298Z,23.50
2017-06-25T07:30:06.601Z,23.50
2017-06-25T07:32:34.944Z,23.50
2017-06-25T07:35:03.381Z,24.10
2017-06-25T07:37:31.794Z,25.30
2017-06-25T07:40:00.108Z,25.90
2017-06-25T07:42:28.433Z,26.20
2017-06-25T07:44:56.766Z,26.30
2017-06-25T07:47:25.084Z,26.10
2017-06-25T07:49:53.382Z,25.70
2017-06-25T07:52:21.741Z,25.40
2017-06-25T07:54:50.033Z,25.20
2017-06-25T07:57:18.358Z,25.20
2017-06-25T07:59:46.656Z,25.20
2017-06-25T08:02:14.990Z,25.20
2017-06-25T08:04:44.053Z,25.70
2017-06-25T08:07:12.345Z,25.70
2017-06-25T08:09:40.679Z,26.20
2017-06-25T08:12:08.977Z,26.40
2017-06-25T08:14:37.312Z,26.60
2017-06-25T08:17:05.601Z,26.70
2017-06-25T08:19:33.921Z,26.60
2017-06-25T08:22:02.218Z,26.60
2017-06-25T08:24:31.301Z,26.70
2017-06-25T08:26:59.674Z,26.70
2017-06-25T08:29:28.984Z,26.70
2017-06-25T08:31:57.301Z,26.60
2017-06-25T08:34:25.601Z,26.50
2017-06-25T08:36:53.916Z,26.40
2017-06-25T08:39:22.222Z,26.40
2017-06-25T08:41:50.569Z,26.10
2017-06-25T08:44:18.889Z,25.80
2017-06-25T08:46:47.205Z,25.90
2017-06-25T08:49:15.730Z,26.40
2017-06-25T08:51:44.809Z,27.30
2017-06-25T08:54:13.896Z,27.30
2017-06-25T08:56:42.186Z,27.30
2017-06-25T08:59:11.277Z,27.40
2017-06-25T09:01:40.353Z,27.50
2017-06-25T09:04:08.671Z,27.40
2017-06-25T09:06:37.753Z,26.90
2017-06-25T09:09:06.817Z,26.70
2017-06-25T09:11:35.150Z,26.60
2017-06-25T09:14:03.444Z,26.60
2017-06-25T09:16:31.729Z,26.30
2017-06-25T09:19:00.065Z,26.10
2017-06-25T09:21:28.405Z,26.00
2017-06-25T09:23:56.738Z,26.00
2017-06-25T09:26:25.034Z,26.10
2017-06-25T09:28:53.329Z,26.50
2017-06-25T09:31:21.644Z,26.80
2017-06-25T09:33:50.705Z,27.80
2017-06-25T09:36:19.065Z,27.80
2017-06-25T09:38:47.377Z,27.90
2017-06-25T09:41:15.697Z,27.70
2017-06-25T09:43:43.985Z,27.60
2017-06-25T09:46:12.297Z,27.40
2017-06-25T09:48:40.621Z,27.10
2017-06-25T09:51:08.915Z,26.80
2017-06-25T09:53:37.229Z,26.50
2017-06-25T09:56:05.530Z,26.30
2017-06-25T09:58:34.624Z,25.70
2017-06-25T10:01:03.691Z,25.50
2017-06-25T10:03:32.037Z,25.40
2017-06-25T10:06:00.333Z,25.40
2017-06-25T10:08:28.625Z,25.50
2017-06-25T10:10:56.947Z,25.60
2017-06-25T10:13:25.261Z,25.70
2017-06-25T10:15:53.593Z,25.60
2017-06-25T10:18:22.652Z,25.20
2017-06-25T10:20:50.989Z,25.20
2017-06-25T10:23:19.314Z,25.10
2017-06-25T10:25:47.654Z,25.20
2017-06-25T10:28:15.992Z,25.30
2017-06-25T10:30:45.053Z,25.40
2017-06-25T10:33:14.381Z,25.20
2017-06-25T10:35:45.466Z,25.20
2017-06-25T10:38:15.856Z,25.00
2017-06-25T10:40:44.323Z,24.90
2017-06-25T10:43:12.651Z,24.90
2017-06-25T10:45:40.954Z,25.00
2017-06-25T10:48:10.058Z,25.40
2017-06-25T10:50:39.117Z,25.50
2017-06-25T10:53:07.440Z,25.50
2017-06-25T10:55:35.729Z,25.80
2017-06-25T10:58:04.052Z,26.00
2017-06-25T11:00:32.377Z,26.30
2017-06-25T11:03:00.674Z,26.50
2017-06-25T11:05:28.997Z,26.70
2017-06-25T11:07:57.287Z,26.90
2017-06-25T11:10:26.383Z,27.00
2017-06-25T11:12:55.437Z,26.80
2017-06-25T11:15:23.758Z,26.80
2017-06-25T11:17:52.815Z,26.70
2017-06-25T11:20:21.133Z,26.60
2017-06-25T11:22:50.225Z,27.00
2017-06-25T11:25:19.303Z,27.00
2017-06-25T11:27:47.641Z,27.00
2017-06-25T11:30:15.936Z,27.00
2017-06-25T11:32:44.225Z,26.90
2017-06-25T11:35:12.561Z,26.80
2017-06-25T11:37:40.856Z,26.60
2017-06-25T11:40:09.177Z,26.40
2017-06-25T11:42:38.243Z,25.60
2017-06-25T11:45:06.573Z,25.60
2017-06-25T11:47:34.881Z,25.60
2017-06-25T11:50:03.190Z,25.50
2017-06-25T11:52:31.481Z,25.40
2017-06-25T11:55:00.565Z,25.80
2017-06-25T11:57:28.861Z,25.80
2017-06-25T11:59:57.950Z,26.30
2017-06-25T12:02:27.005Z,26.40
2017-06-25T12:04:55.339Z,26.40
2017-06-25T12:07:23.631Z,26.40
2017-06-25T12:09:52.054Z,26.50
2017-06-25T12:12:20.352Z,26.50
2017-06-25T12:14:49.445Z,26.40
2017-06-25T12:17:17.737Z,26.40
2017-06-25T12:19:46.062Z,26.40
2017-06-25T12:22:14.395Z,26.40
2017-06-25T12:24:43.473Z,26.10
2017-06-25T12:27:11.760Z,26.00
2017-06-25T12:29:40.849Z,25.90
2017-06-25T12:32:09.909Z,25.80
2017-06-25T12:34:38.238Z,25.80
2017-06-25T12:37:06.530Z,25.70
2017-06-25T12:39:34.837Z,25.60
2017-06-25T12:42:03.153Z,25.40
2017-06-25T12:44:31.481Z,25.20
2017-06-25T12:46:59.762Z,25.00
2017-06-25T12:49:28.045Z,24.90
2017-06-25T12:51:56.357Z,24.70
2017-06-25T12:54:24.646Z,24.50
2017-06-25T12:56:53.745Z,24.20
2017-06-25T12:59:22.826Z,24.10
2017-06-25T13:01:51.137Z,24.10
2017-06-25T13:04:20.238Z,23.90
2017-06-25T13:06:48.573Z,23.90
2017-06-25T13:09:17.468Z,23.80
2017-06-25T13:11:47.413Z,23.70
2017-06-25T13:14:16.471Z,23.60
2017-06-25T13:16:44.757Z,23.60
2017-06-25T13:19:13.078Z,23.60
2017-06-25T13:21:41.401Z,23.50
2017-06-25T13:24:09.688Z,23.60
2017-06-25T13:26:38.047Z,23.60
2017-06-25T13:29:06.334Z,23.60
2017-06-25T13:31:34.642Z,23.60
2017-06-25T13:34:03.697Z,23.80
2017-06-25T13:36:32.018Z,23.80
2017-06-25T13:39:01.068Z,24.00
2017-06-25T13:41:29.372Z,24.00
2017-06-25T13:43:57.669Z,24.10
2017-06-25T13:46:26.826Z,24.20
2017-06-25T13:48:55.112Z,24.20
2017-06-25T13:51:23.393Z,24.30
2017-06-25T13:53:51.706Z,24.30
2017-06-25T13:56:19.994Z,24.50
2017-06-25T13:58:48.306Z,24.70
2017-06-25T14:01:16.590Z,24.90
2017-06-25T14:03:44.913Z,24.90
2017-06-25T14:06:13.973Z,25.00
2017-06-25T14:08:42.298Z,25.00
2017-06-25T14:11:10.593Z,24.90
2017-06-25T14:13:38.882Z,24.70
2017-06-25T14:16:07.196Z,24.60
2017-06-25T14:18:35.490Z,24.50
2017-06-25T14:21:04.648Z,24.50
2017-06-25T14:23:32.937Z,24.50
2017-06-25T14:26:01.273Z,24.50
2017-06-25T14:28:29.553Z,24.30
2017-06-25T14:30:57.905Z,24.20
2017-06-25T14:33:26.190Z,24.10
2017-06-25T14:35:54.480Z,24.10
2017-06-25T14:38:22.799Z,23.90
2017-06-25T14:40:51.135Z,23.80
2017-06-25T14:43:19.454Z,23.80
2017-06-25T14:45:47.771Z,23.80
2017-06-25T14:48:16.065Z,23.80
2017-06-25T14:50:44.389Z,23.80
2017-06-25T14:53:12.680Z,23.80
2017-06-25T14:55:41.005Z,23.70
2017-06-25T14:58:09.295Z,23.70
2017-06-25T15:00:38.350Z,23.70
2017-06-25T15:03:06.665Z,23.70
2017-06-25T15:05:35.723Z,23.70
2017-06-25T15:08:04.094Z,23.70
2017-06-25T15:10:32.393Z,23.70
2017-06-25T15:13:00.678Z,23.80
2017-06-25T15:15:29.013Z,23.80
2017-06-25T15:17:57.305Z,23.90
2017-06-25T15:20:25.667Z,24.00
2017-06-25T15:22:53.954Z,24.00
2017-06-25T15:25:22.273Z,24.10
2017-06-25T15:27:50.593Z,24.10
2017-06-25T15:30:18.933Z,24.00
2017-06-25T15:32:48.041Z,23.90
2017-06-25T15:35:17.119Z,23.80
2017-06-25T15:37:45.417Z,23.80
2017-06-25T15:40:14.521Z,23.80
2017-06-25T15:42:42.819Z,23.80
2017-06-25T15:45:11.117Z,23.80
2017-06-25T15:47:39.428Z,23.90
2017-06-25T15:50:08.510Z,24.00
2017-06-25T15:52:36.797Z,24.00
2017-06-25T15:55:05.109Z,24.10
2017-06-25T15:57:33.426Z,24.10
2017-06-25T16:00:01.745Z,24.20
2017-06-25T16:02:30.938Z,24.20
2017-06-25T16:05:00.025Z,24.10
2017-06-25T16:07:29.109Z,24.00
2017-06-25T16:09:57.397Z,24.00
2017-06-25T16:12:25.719Z,23.90
2017-06-25T16:14:54.021Z,23.90
2017-06-25T16:17:22.348Z,23.90
2017-06-25T16:19:51.409Z,23.90
2017-06-25T16:22:19.755Z,23.90
2017-06-25T16:24:48.069Z,23.90
2017-06-25T16:27:16.353Z,24.00
2017-06-25T16:29:44.724Z,23.90
2017-06-25T16:32:13.026Z,23.90
2017-06-25T16:34:42.094Z,23.90
2017-06-25T16:37:10.426Z,23.90
2017-06-25T16:39:38.721Z,23.90
2017-06-25T16:42:07.072Z,23.90
2017-06-25T16:44:35.361Z,24.00
2017-06-25T16:47:03.648Z,24.20
2017-06-25T16:49:32.001Z,24.30
2017-06-25T16:52:00.382Z,24.50
2017-06-25T16:54:28.709Z,24.50
2017-06-25T16:56:57.071Z,24.50
2017-06-25T16:59:26.153Z,24.40
2017-06-25T17:01:54.444Z,24.40
2017-06-25T17:04:23.529Z,24.40
2017-06-25T17:06:51.820Z,24.30
2017-06-25T17:09:20.908Z,24.40
2017-06-25T17:11:49.960Z,24.30
2017-06-25T17:14:18.276Z,24.30
2017-06-25T17:16:47.337Z,24.40
2017-06-25T17:19:16.168Z,24.30
2017-06-25T17:21:44.466Z,24.40
2017-06-25T17:24:12.751Z,24.40
2017-06-25T17:26:41.069Z,24.40
2017-06-25T17:29:09.397Z,24.30
2017-06-25T17:31:37.713Z,24.20
2017-06-25T17:34:06.005Z,24.10
2017-06-25T17:36:34.357Z,24.00
2017-06-25T17:39:02.649Z,24.00
2017-06-25T17:41:30.937Z,24.00
2017-06-25T17:43:59.262Z,24.00
2017-06-25T17:46:27.578Z,24.10
2017-06-25T17:48:55.906Z,24.20
2017-06-25T17:51:25.001Z,24.30
2017-06-25T17:53:54.055Z,24.30
2017-06-25T17:56:22.346Z,24.30
2017-06-25T17:58:50.689Z,24.20
2017-06-25T18:01:18.974Z,24.20
2017-06-25T18:03:47.304Z,24.20
2017-06-25T18:06:16.366Z,24.10
2017-06-25T18:08:44.696Z,24.10
2017-06-25T18:11:13.000Z,24.10
2017-06-25T18:13:41.291Z,24.00
2017-06-25T18:16:09.614Z,24.00
2017-06-25T18:18:38.764Z,23.90
2017-06-25T18:21:07.095Z,23.90
2017-06-25T18:23:35.382Z,23.90
2017-06-25T18:26:03.696Z,24.00
2017-06-25T18:28:32.009Z,24.00
2017-06-25T18:31:01.134Z,24.00
2017-06-25T18:33:29.431Z,24.00
2017-06-25T18:35:57.729Z,24.00
2017-06-25T18:38:26.053Z,24.00
2017-06-25T18:40:54.349Z,23.90
2017-06-25T18:43:22.670Z,23.80
2017-06-25T18:45:50.966Z,23.70
2017-06-25T18:48:19.313Z,23.60
2017-06-25T18:50:47.616Z,23.50
2017-06-25T18:53:16.297Z,23.40
2017-06-25T18:55:44.593Z,23.40
2017-06-25T18:58:12.890Z,23.40
2017-06-25T19:00:41.250Z,23.40
2017-06-25T19:03:09.550Z,23.40
2017-06-25T19:05:37.850Z,23.40
2017-06-25T19:08:06.953Z,23.30
2017-06-25T19:10:35.250Z,23.30
2017-06-25T19:13:03.581Z,23.20
2017-06-25T19:15:31.901Z,23.10
2017-06-25T19:18:00.190Z,23.00
2017-06-25T19:20:29.280Z,23.00
2017-06-25T19:22:58.339Z,23.00
2017-06-25T19:25:26.669Z,22.90
2017-06-25T19:27:55.056Z,23.00
2017-06-25T19:30:23.383Z,22.90
2017-06-25T19:32:51.729Z,22.80
2017-06-25T19:35:20.125Z,22.80
2017-06-25T19:37:48.414Z,22.80
2017-06-25T19:40:16.759Z,22.70
2017-06-25T19:42:45.048Z,22.70
2017-06-25T19:45:13.346Z,22.80
2017-06-25T19:47:41.670Z,22.80
2017-06-25T19:50:09.957Z,22.80
2017-06-25T19:52:38.277Z,22.80
2017-06-25T19:55:06.566Z,22.80
2017-06-25T19:57:35.662Z,22.80
2017-06-25T20:00:04.734Z,22.70
2017-06-25T20:02:33.825Z,22.60
2017-06-25T20:05:02.150Z,22.60
2017-06-25T20:07:30.438Z,22.50
2017-06-25T20:09:58.758Z,22.40
2017-06-25T20:12:27.050Z,22.40
2017-06-25T20:14:56.135Z,22.10
2017-06-25T20:17:24.420Z,22.10
2017-06-25T20:19:52.758Z,22.00
2017-06-25T20:22:21.830Z,21.90
2017-06-25T20:24:50.146Z,21.90
2017-06-25T20:27:18.476Z,21.90
2017-06-25T20:29:46.765Z,21.80
2017-06-25T20:32:15.065Z,21.80
2017-06-25T20:34:44.145Z,21.80
2017-06-25T20:37:12.460Z,21.70
2017-06-25T20:39:40.768Z,21.80
2017-06-25T20:42:09.106Z,21.80
2017-06-25T20:44:37.430Z,21.70
2017-06-25T20:47:05.719Z,21.70
2017-06-25T20:49:34.057Z,21.70
2017-06-25T20:52:02.363Z,21.70
2017-06-25T20:54:30.654Z,21.60
2017-06-25T20:56:58.965Z,21.60
2017-06-25T20:59:27.325Z,21.70
2017-06-25T21:01:56.483Z,21.60
2017-06-25T21:04:24.794Z,21.60
2017-06-25T21:06:53.115Z,21.60
2017-06-25T21:09:21.409Z,21.60
2017-06-25T21:11:49.729Z,21.60
2017-06-25T21:14:18.782Z,21.70
2017-06-25T21:16:47.098Z,21.70
2017-06-25T21:19:16.156Z,21.70
2017-06-25T21:21:44.477Z,21.70
2017-06-25T21:24:16.461Z,21.70
2017-06-25T21:26:44.805Z,21.70
2017-06-25T21:29:13.097Z,21.70
2017-06-25T21:31:42.164Z,21.70
2017-06-25T21:34:10.487Z,21.60
2017-06-25T21:36:38.783Z,21.70
2017-06-25T21:39:07.110Z,21.70
2017-06-25T21:41:35.434Z,21.70
2017-06-25T21:44:03.736Z,21.80
2017-06-25T21:46:32.827Z,21.70
2017-06-25T21:49:01.893Z,21.80
2017-06-25T21:51:30.215Z,21.80
2017-06-25T21:53:59.366Z,21.70
2017-06-25T21:56:27.684Z,21.70
2017-06-25T21:58:56.745Z,21.60
2017-06-25T22:01:25.090Z,21.60
2017-06-25T22:03:53.413Z,21.60
2017-06-25T22:06:21.708Z,21.60
2017-06-25T22:08:50.785Z,21.60
2017-06-25T22:11:19.085Z,21.60
2017-06-25T22:13:48.176Z,21.50
2017-06-25T22:16:17.242Z,21.40
2017-06-25T22:18:45.524Z,21.40
2017-06-25T22:21:13.853Z,21.40
2017-06-25T22:23:42.141Z,21.30
2017-06-25T22:26:10.465Z,21.30
2017-06-25T22:28:38.755Z,21.30
2017-06-25T22:31:07.072Z,21.30
2017-06-25T22:33:35.366Z,21.20
2017-06-25T22:36:03.684Z,21.20
2017-06-25T22:38:32.754Z,21.30
2017-06-25T22:41:01.086Z,21.20
2017-06-25T22:43:29.409Z,21.30
2017-06-25T22:45:57.729Z,21.40
2017-06-25T22:48:26.783Z,21.40
2017-06-25T22:50:55.101Z,21.40
2017-06-25T22:53:23.400Z,21.40
2017-06-25T22:55:51.724Z,21.40
2017-06-25T22:58:20.013Z,21.40
2017-06-25T23:00:48.333Z,21.30
2017-06-25T23:03:16.622Z,21.30
2017-06-25T23:05:44.974Z,21.30
2017-06-25T23:08:13.266Z,21.30
2017-06-25T23:10:41.578Z,21.20
2017-06-25T23:13:09.873Z,21.20
2017-06-25T23:15:38.190Z,21.20
2017-06-25T23:18:06.482Z,21.30
2017-06-25T23:20:34.793Z,21.20
2017-06-25T23:23:03.113Z,21.20
2017-06-25T23:25:31.405Z,21.20
2017-06-25T23:27:59.744Z,21.20
2017-06-25T23:30:28.800Z,21.10
2017-06-25T23:32:57.257Z,21.10
2017-06-25T23:35:25.577Z,21.20
2017-06-25T23:37:53.861Z,21.10
2017-06-25T23:40:22.193Z,21.10
2017-06-25T23:42:50.473Z,21.10
2017-06-25T23:45:18.798Z,21.00
2017-06-25T23:47:47.100Z,21.00
2017-06-25T23:50:15.417Z,21.00
2017-06-25T23:52:44.471Z,20.90
2017-06-25T23:55:13.046Z,20.90
2017-06-25T23:57:41.354Z,21.00
